createdAt,value
2022-07-26T00:00:58.152Z,100392.72
2022-07-26T00:03:29.096Z,100389.66
2022-07-26T00:06:00.838Z,100380.63
2022-07-26T00:08:29.470Z,100386.38
2022-07-26T00:11:07.141Z,100388.31
2022-07-26T00:13:37.904Z,100396.28
2022-07-26T00:16:09.447Z,100285.03
2022-07-26T00:18:41.792Z,100382.72
2022-07-26T00:21:28.114Z,100388.34
2022-07-26T00:24:19.611Z,100384.44
2022-07-26T00:27:16.764Z,100390.84
2022-07-26T00:29:48.196Z,100389.47
2022-07-26T00:32:17.662Z,100383.63
2022-07-26T00:35:45.786Z,100330.63
2022-07-26T00:38:27.012Z,100387.97
2022-07-26T00:41:03.275Z,100386.44
2022-07-26T00:43:35.283Z,100398.94
2022-07-26T00:46:04.709Z,100392.53
2022-07-26T00:48:33.056Z,100404.56
2022-07-26T00:51:01.588Z,100387.19
2022-07-26T00:53:31.134Z,100396.25
2022-07-26T00:55:59.679Z,100374.59
2022-07-26T00:58:27.722Z,100410.41
2022-07-26T01:00:57.020Z,100352.94
2022-07-26T01:03:24.913Z,100404.47
2022-07-26T01:05:58.771Z,100412.56
2022-07-26T01:08:27.307Z,100406.41
2022-07-26T01:10:55.843Z,100402.66
2022-07-26T01:13:25.803Z,100414.66
2022-07-26T01:15:54.080Z,100402.44
2022-07-26T01:18:23.597Z,100411.22
2022-07-26T01:20:52.863Z,100425.03
2022-07-26T01:23:22.356Z,100420.41
2022-07-26T01:25:50.619Z,100411.50
2022-07-26T01:28:20.522Z,100351.03
2022-07-26T01:30:50.017Z,100367.44
2022-07-26T01:33:19.013Z,100424.22
2022-07-26T01:35:48.003Z,100352.25
2022-07-26T01:38:16.386Z,100357.72
2022-07-26T01:40:46.699Z,100400.06
2022-07-26T01:43:15.727Z,100437.31
2022-07-26T01:45:44.787Z,100361.84
2022-07-26T01:48:12.877Z,100387.66
2022-07-26T01:50:41.243Z,100317.03
2022-07-26T01:53:10.064Z,100417.69
2022-07-26T01:55:38.661Z,100422.53
2022-07-26T01:58:09.220Z,100326.78
2022-07-26T02:00:38.467Z,100435.63
2022-07-26T02:03:07.135Z,100352.25
2022-07-26T02:05:36.439Z,100380.66
2022-07-26T02:08:05.190Z,100443.84
2022-07-26T02:10:47.812Z,100438.38
2022-07-26T02:13:18.106Z,100432.16
2022-07-26T02:15:47.631Z,100440.97
2022-07-26T02:18:16.323Z,100427.50
2022-07-26T02:20:45.578Z,100441.44
2022-07-26T02:23:15.783Z,100380.81
2022-07-26T02:25:44.324Z,100423.97
2022-07-26T02:28:16.031Z,100422.88
2022-07-26T02:30:49.957Z,100420.50
2022-07-26T02:33:21.695Z,100439.66
2022-07-26T02:35:51.206Z,100446.78
2022-07-26T02:38:23.012Z,100411.25
2022-07-26T02:40:56.662Z,100344.25
2022-07-26T02:43:26.885Z,100436.59
2022-07-26T02:46:01.066Z,100313.81
2022-07-26T02:48:31.040Z,100455.63
2022-07-26T02:50:59.592Z,100461.81
2022-07-26T02:53:28.641Z,100448.13
2022-07-26T02:56:05.298Z,100452.78
2022-07-26T02:58:33.671Z,100458.94
2022-07-26T03:01:03.765Z,100420.31
2022-07-26T03:03:36.530Z,100468.84
2022-07-26T03:06:05.892Z,100467.28
2022-07-26T03:08:34.289Z,100470.16
2022-07-26T03:11:11.957Z,100427.63
2022-07-26T03:13:41.686Z,100382.19
2022-07-26T03:16:12.594Z,100474.66
2022-07-26T03:18:42.289Z,100452.06
2022-07-26T03:21:11.354Z,100476.94
2022-07-26T03:23:40.724Z,100484.44
2022-07-26T03:26:11.004Z,100478.25
2022-07-26T03:28:42.414Z,100480.75
2022-07-26T03:31:13.749Z,100475.97
2022-07-26T03:36:26.185Z,100482.75
2022-07-26T03:38:55.041Z,100139.56
2022-07-26T03:41:24.598Z,100479.69
2022-07-26T03:43:53.556Z,100486.69
2022-07-26T03:46:23.750Z,100494.44
2022-07-26T03:48:52.382Z,100488.38
2022-07-26T03:51:22.368Z,100493.59
2022-07-26T03:53:51.465Z,100488.38
2022-07-26T03:56:29.013Z,100490.16
2022-07-26T03:58:57.552Z,100492.78
2022-07-26T04:01:27.449Z,100457.19
2022-07-26T04:03:55.989Z,100493.72
2022-07-26T04:06:25.434Z,100498.84
2022-07-26T04:08:54.608Z,100358.03
2022-07-26T04:11:23.107Z,100429.66
2022-07-26T04:13:57.853Z,100492.41
2022-07-26T04:16:29.196Z,100494.91
2022-07-26T04:18:58.914Z,100500.97
2022-07-26T04:21:27.319Z,100488.00
2022-07-26T04:23:55.816Z,100489.78
2022-07-26T04:26:24.747Z,100421.94
2022-07-26T04:29:03.414Z,100501.22
2022-07-26T04:31:38.748Z,100482.75
2022-07-26T04:34:09.084Z,100451.00
2022-07-26T04:36:41.235Z,100484.53
2022-07-26T04:39:13.661Z,100421.84
2022-07-26T04:41:46.382Z,100451.97
2022-07-26T04:44:18.128Z,100446.59
2022-07-26T04:46:58.976Z,100360.34
2022-07-26T04:49:41.426Z,100227.47
2022-07-26T04:52:09.740Z,100483.00
2022-07-26T04:54:37.947Z,100450.03
2022-07-26T04:57:09.101Z,100414.94
2022-07-26T04:59:37.189Z,100502.63
2022-07-26T05:02:14.366Z,100465.50
2022-07-26T05:04:45.952Z,100487.97
2022-07-26T05:07:19.074Z,100316.78
2022-07-26T05:09:55.567Z,100424.22
2022-07-26T05:12:23.480Z,100502.03
2022-07-26T05:14:52.511Z,100477.28
2022-07-26T05:17:23.915Z,100507.00
2022-07-26T05:19:58.788Z,100484.41
2022-07-26T05:22:31.637Z,100509.03
2022-07-26T05:25:01.219Z,100505.34
2022-07-26T05:27:30.933Z,100502.25
2022-07-26T05:30:02.469Z,100502.72
2022-07-26T05:32:32.075Z,100502.34
2022-07-26T05:35:04.892Z,100493.06
2022-07-26T05:37:33.125Z,100465.06
2022-07-26T05:40:19.713Z,100439.47
2022-07-26T05:42:47.865Z,100355.06
2022-07-26T05:45:16.045Z,100381.31
2022-07-26T05:47:50.622Z,100498.66
2022-07-26T05:50:18.511Z,100494.34
2022-07-26T05:52:46.331Z,100496.50
2022-07-26T05:55:14.520Z,100478.22
2022-07-26T05:57:42.800Z,100498.56
2022-07-26T06:00:11.425Z,100499.66
2022-07-26T06:02:41.948Z,100499.56
2022-07-26T06:05:11.314Z,100502.31
2022-07-26T06:07:39.148Z,100503.03
2022-07-26T06:10:40.564Z,100502.59
2022-07-26T06:13:56.676Z,100477.50
2022-07-26T06:17:22.692Z,100502.50
2022-07-26T06:20:07.474Z,100490.88
2022-07-26T06:23:40.757Z,100514.28
2022-07-26T06:27:23.362Z,100513.53
2022-07-26T06:34:54.160Z,100505.09
2022-07-26T06:38:42.456Z,100347.81
2022-07-26T06:41:44.116Z,100516.81
2022-07-26T06:47:46.778Z,100522.53
2022-07-26T07:02:30.255Z,100541.91
2022-07-26T07:05:27.773Z,100492.06
2022-07-26T07:08:06.579Z,100557.38
2022-07-26T07:11:07.024Z,100324.34
2022-07-26T07:14:12.992Z,100293.84
2022-07-26T07:16:55.470Z,100548.63
2022-07-26T07:20:05.260Z,100507.47
2022-07-26T07:26:25.490Z,100481.19
2022-07-26T07:28:55.851Z,100560.75
2022-07-26T07:31:48.767Z,100356.00
2022-07-26T07:34:37.139Z,100557.47
2022-07-26T07:37:11.252Z,100563.59
2022-07-26T07:39:52.954Z,100563.31
2022-07-26T07:45:48.556Z,100567.81
2022-07-26T07:48:24.347Z,100488.84
2022-07-26T07:50:59.440Z,100351.81
2022-07-26T08:50:44.557Z,100569.50
2022-07-26T08:53:14.341Z,100473.22
2022-07-26T08:56:05.794Z,100570.28
2022-07-26T08:58:30.038Z,100494.50
2022-07-26T09:01:09.124Z,100470.47
2022-07-26T09:03:38.631Z,100574.06
2022-07-26T09:06:21.136Z,100544.47
2022-07-26T09:12:14.816Z,100571.25
2022-07-26T09:14:43.064Z,100498.75
2022-07-26T09:17:10.979Z,100562.88
2022-07-26T09:19:38.841Z,100527.06
2022-07-26T09:22:12.036Z,100534.91
2022-07-26T09:24:42.587Z,100577.28
2022-07-26T09:27:13.540Z,100492.50
2022-07-26T09:29:47.385Z,100534.53
2022-07-26T09:32:21.090Z,100467.28
2022-07-26T09:34:53.469Z,100450.94
2022-07-26T09:40:55.957Z,100524.03
2022-07-26T09:43:25.405Z,100529.56
2022-07-26T09:46:21.275Z,100595.94
2022-07-26T09:51:39.846Z,100511.44
2022-07-26T09:54:09.221Z,100506.31
2022-07-26T09:56:48.789Z,100489.41
2022-07-26T09:59:21.867Z,100606.69
2022-07-26T10:02:06.707Z,100515.13
2022-07-26T10:31:23.317Z,100422.50
2022-07-26T10:33:58.929Z,100598.28
2022-07-26T10:36:30.351Z,100571.28
2022-07-26T10:39:13.233Z,100570.94
2022-07-26T10:41:44.020Z,100580.06
2022-07-26T10:44:21.117Z,100595.72
2022-07-26T10:47:01.498Z,100608.09
2022-07-26T10:49:33.520Z,100600.59
2022-07-26T10:52:16.864Z,100506.09
2022-07-26T10:55:17.271Z,100498.59
2022-07-26T11:05:57.495Z,100617.59
2022-07-26T11:37:05.314Z,100607.34
2022-07-26T11:40:29.392Z,100605.91
2022-07-26T11:52:03.549Z,100522.19
2022-07-26T12:06:40.099Z,100608.72
2022-07-26T12:10:02.146Z,100597.81
2022-07-26T12:30:30.798Z,100488.09
2022-07-26T12:37:41.704Z,100538.19
2022-07-26T12:40:23.695Z,100598.72
2022-07-26T12:47:30.599Z,100366.94
2022-07-26T12:49:59.386Z,100454.47
2022-07-26T12:52:27.457Z,100400.03
2022-07-26T12:54:56.619Z,100619.19
2022-07-26T12:57:24.371Z,100668.69
2022-07-26T12:59:52.201Z,100676.31
2022-07-26T13:02:20.649Z,100667.25
2022-07-26T13:04:49.200Z,100661.63
2022-07-26T13:07:29.700Z,100658.97
2022-07-26T13:10:33.635Z,100657.63
2022-07-26T13:13:05.138Z,100646.78
2022-07-26T13:15:59.013Z,100619.03
2022-07-26T13:22:34.477Z,100630.16
2022-07-26T13:28:45.659Z,100627.53
2022-07-26T13:36:16.565Z,100615.44
2022-07-26T13:38:44.566Z,100613.28
2022-07-26T13:41:18.383Z,100609.78
2022-07-26T13:43:46.878Z,100619.38
2022-07-26T13:46:14.729Z,100628.81
2022-07-26T13:48:59.644Z,100618.72
2022-07-26T13:51:45.528Z,100617.38
2022-07-26T13:54:13.996Z,100623.13
2022-07-26T13:56:44.411Z,100621.72
2022-07-26T13:59:12.898Z,100615.06
2022-07-26T14:01:42.213Z,100614.56
2022-07-26T14:04:13.642Z,100617.13
2022-07-26T14:06:41.969Z,100611.34
2022-07-26T14:09:11.219Z,100611.84
2022-07-26T14:11:39.762Z,100606.59
2022-07-26T14:14:09.557Z,100602.00
2022-07-26T14:16:37.681Z,100613.72
2022-07-26T14:19:06.284Z,100593.16
2022-07-26T14:21:43.630Z,100605.91
2022-07-26T14:24:20.827Z,100605.78
2022-07-26T14:26:48.791Z,100588.19
2022-07-26T14:29:17.978Z,100600.47
2022-07-26T14:31:45.867Z,100604.97
2022-07-26T14:34:14.397Z,100604.47
2022-07-26T14:36:42.768Z,100602.13
2022-07-26T14:39:10.536Z,100596.16
2022-07-26T14:41:41.333Z,100591.41
2022-07-26T14:44:13.285Z,100467.75
2022-07-26T14:47:15.650Z,100592.78
2022-07-26T14:49:43.720Z,100587.03
2022-07-26T14:52:39.209Z,100593.34
2022-07-26T14:55:30.193Z,100591.03
2022-07-26T14:57:57.989Z,100596.47
2022-07-26T15:00:25.881Z,100596.09
2022-07-26T15:02:55.191Z,100591.56
2022-07-26T15:05:23.294Z,100590.72
2022-07-26T15:07:51.031Z,100588.75
2022-07-26T15:10:29.040Z,100590.44
2022-07-26T15:12:56.938Z,100586.50
2022-07-26T15:15:24.900Z,100583.44
2022-07-26T15:17:53.023Z,100573.81
2022-07-26T15:24:50.131Z,100568.66
2022-07-26T15:27:17.861Z,100576.78
2022-07-26T15:29:46.758Z,100573.34
2022-07-26T15:32:14.664Z,100568.44
2022-07-26T15:34:42.500Z,100566.09
2022-07-26T15:37:24.987Z,100566.63
2022-07-26T15:40:02.526Z,100549.53
2022-07-26T15:42:56.311Z,100567.00
2022-07-26T15:45:47.645Z,100551.84
2022-07-26T15:48:57.977Z,100563.63
2022-07-26T15:51:53.375Z,100583.00
2022-07-26T15:54:22.691Z,100589.63
2022-07-26T15:56:51.952Z,100586.94
2022-07-26T15:59:21.464Z,100575.59
2022-07-26T16:01:49.480Z,100607.22
2022-07-26T16:04:17.575Z,100624.22
2022-07-26T16:06:45.367Z,100620.16
2022-07-26T16:09:17.110Z,100609.00
2022-07-26T16:11:46.479Z,100628.28
2022-07-26T16:14:18.243Z,100593.53
2022-07-26T16:16:46.351Z,100621.63
2022-07-26T16:19:14.542Z,100639.81
2022-07-26T16:21:42.609Z,100629.50
2022-07-26T16:24:11.780Z,100602.47
2022-07-26T16:26:40.742Z,100622.31
2022-07-26T16:29:08.992Z,100630.88
2022-07-26T16:32:19.422Z,100627.19
2022-07-26T16:38:15.481Z,100635.03
2022-07-26T16:40:54.919Z,100590.00
2022-07-26T16:43:57.294Z,100589.25
2022-07-26T16:47:16.511Z,100622.06
2022-07-26T16:50:49.257Z,100621.94
2022-07-26T16:53:56.446Z,100603.41
2022-07-26T16:56:24.188Z,100624.31
2022-07-26T16:58:51.928Z,100627.16
2022-07-26T17:01:19.792Z,100628.06
2022-07-26T17:03:49.002Z,100625.91
2022-07-26T17:06:16.823Z,100621.66
2022-07-26T17:08:44.598Z,100638.34
2022-07-26T17:11:12.329Z,100635.44
2022-07-26T17:13:40.281Z,100634.06
2022-07-26T17:16:08.037Z,100632.38
2022-07-26T17:18:35.855Z,100636.94
2022-07-26T17:21:05.018Z,100625.81
2022-07-26T17:23:32.851Z,100639.16
2022-07-26T17:26:00.642Z,100644.03
2022-07-26T17:28:28.411Z,100650.03
2022-07-26T17:30:56.189Z,100639.94
2022-07-26T17:33:23.991Z,100648.16
2022-07-26T17:35:51.778Z,100639.72
2022-07-26T17:38:20.940Z,100644.44
2022-07-26T17:40:51.198Z,100642.22
2022-07-26T17:43:18.974Z,100650.13
2022-07-26T17:45:46.709Z,100645.41
2022-07-26T17:48:14.454Z,100645.28
2022-07-26T17:50:42.265Z,100655.94
2022-07-26T17:53:10.023Z,100648.47
2022-07-26T17:55:39.089Z,100647.09
2022-07-26T17:58:06.824Z,100651.38
2022-07-26T18:00:34.624Z,100651.38
2022-07-26T18:03:02.410Z,100654.69
2022-07-26T18:05:35.100Z,100659.81
2022-07-26T18:08:05.406Z,100660.50
2022-07-26T18:10:33.179Z,100665.66
2022-07-26T18:13:02.374Z,100651.09
2022-07-26T18:15:30.283Z,100665.38
2022-07-26T18:17:58.117Z,100661.06
2022-07-26T18:20:26.029Z,100664.53
2022-07-26T18:22:55.370Z,100657.75
2022-07-26T18:25:23.144Z,100662.31
2022-07-26T18:27:51.008Z,100666.19
2022-07-26T18:30:20.185Z,100660.66
2022-07-26T18:32:47.978Z,100657.75
2022-07-26T18:35:15.832Z,100660.06
2022-07-26T18:37:43.742Z,100665.03
2022-07-26T18:40:12.229Z,100644.47
2022-07-26T18:42:40.398Z,100655.31
2022-07-26T18:45:08.863Z,100657.34
2022-07-26T18:47:37.992Z,100665.66
2022-07-26T18:50:07.908Z,100656.78
2022-07-26T18:52:36.006Z,100659.81
2022-07-26T18:55:07.007Z,100660.19
2022-07-26T18:57:35.822Z,100643.13
2022-07-26T19:00:06.052Z,100662.25
2022-07-26T19:02:33.908Z,100669.59
2022-07-26T19:05:03.181Z,100664.72
2022-07-26T19:07:31.612Z,100676.59
2022-07-26T19:09:59.504Z,100673.41
2022-07-26T19:12:28.120Z,100679.88
2022-07-26T19:14:56.144Z,100690.66
2022-07-26T19:17:24.009Z,100681.66
2022-07-26T19:19:51.766Z,100690.81
2022-07-26T19:22:21.687Z,100670.94
2022-07-26T19:24:49.759Z,100695.72
2022-07-26T19:27:17.692Z,100669.56
2022-07-26T19:29:48.576Z,100705.38
2022-07-26T19:33:27.170Z,100672.22
2022-07-26T19:36:36.704Z,100564.00
2022-07-26T19:47:17.951Z,100712.13
2022-07-26T19:49:45.868Z,100712.94
2022-07-26T19:52:13.651Z,100706.66
2022-07-26T19:54:41.404Z,100715.22
2022-07-26T19:57:09.244Z,100722.53
2022-07-26T19:59:37.060Z,100728.28
2022-07-26T20:02:41.639Z,100693.50
2022-07-26T20:06:07.671Z,100734.66
2022-07-26T20:09:07.055Z,100560.97
2022-07-26T20:15:22.693Z,100743.94
2022-07-26T20:22:01.566Z,100750.28
2022-07-26T20:25:24.420Z,100746.50
2022-07-26T20:29:01.827Z,100748.16
2022-07-26T20:48:24.494Z,100575.53
2022-07-26T20:51:01.439Z,100540.25
2022-07-26T21:39:23.862Z,100787.94
2022-07-26T21:47:46.699Z,100795.81
2022-07-26T21:50:19.387Z,100792.34
2022-07-26T22:50:01.506Z,100540.00
2022-07-26T22:57:51.203Z,100831.94
2022-07-26T23:06:02.143Z,100635.22
2022-07-26T23:36:59.855Z,100732.94
2022-07-26T23:40:21.638Z,100687.81
2022-07-26T23:43:21.513Z,100682.00
2022-07-26T23:49:39.254Z,100761.13
2022-07-26T23:55:44.334Z,100769.31
2022-07-26T23:58:42.996Z,100565.22
